Time;durP1;ratioP1;P1;durP2;ratioP2;P2;SDS_P1;SDS_P2;PMS_P1;PMS_P2;Temp;Humidity;BMP_temperature;BMP_pressure;BME280_temperature;BME280_humidity;BME280_pressure;Samples;Min_cycle;Max_cycle;Signal;HPM_P1;HPM_P2
2023/02/08 00:00:34;;;;;;;8.43;2.77;;;;;;;;;;6262294;28;20303;-79
2023/02/08 00:03:40;;;;;;;10.17;3.83;;;;;;;;;;6262123;28;20458;-78
2023/02/08 00:06:45;;;;;;;12.50;3.30;;;;;;;;;;6262173;28;20294;-77
2023/02/08 00:09:50;;;;;;;14.00;3.67;;;;;;;;;;6259063;28;20329;-79
2023/02/08 00:12:55;;;;;;;8.60;2.90;;;;;;;;;;6261114;28;20481;-78
2023/02/08 00:16:02;;;;;;;12.83;3.20;;;;;;;;;;6262562;28;20303;-78
2023/02/08 00:19:07;;;;;;;10.80;3.67;;;;;;;;;;6244308;28;20298;-78
2023/02/08 00:22:14;;;;;;;16.23;3.37;;;;;;;;;;6261763;28;20304;-78
2023/02/08 00:25:20;;;;;;;12.10;3.43;;;;;;;;;;6261714;28;20435;-78
2023/02/08 00:28:27;;;;;;;11.57;3.47;;;;;;;;;;6261691;28;20283;-78
2023/02/08 00:31:34;;;;;;;13.83;3.30;;;;;;;;;;6227422;28;20274;-77
2023/02/08 00:34:41;;;;;;;13.93;3.23;;;;;;;;;;6261406;28;20318;-77
2023/02/08 00:37:50;;;;;;;16.03;3.33;;;;;;;;;;6244046;28;20270;-79
2023/02/08 00:41:44;;;;;;;10.23;4.10;;;;;;;;;;6260482;28;20303;-78
2023/02/08 00:44:50;;;;;;;10.43;3.30;;;;;;;;;;6260864;28;20295;-77
2023/02/08 00:47:58;;;;;;;8.00;3.17;;;;;;;;;;6260599;28;20365;-78
2023/02/08 00:51:04;;;;;;;13.50;3.80;;;;;;;;;;6243867;28;20294;-77
2023/02/08 00:54:14;;;;;;;9.67;3.23;;;;;;;;;;6243040;28;20324;-77
2023/02/08 00:57:19;;;;;;;12.80;4.07;;;;;;;;;;6261876;28;20303;-78
2023/02/08 01:00:25;;;;;;;16.37;3.80;;;;;;;;;;6261195;28;20289;-78
2023/02/08 01:03:34;;;;;;;11.83;3.53;;;;;;;;;;6261108;28;20303;-78
2023/02/08 01:06:40;;;;;;;9.40;3.43;;;;;;;;;;6244576;28;20296;-78
2023/02/08 01:09:45;;;;;;;14.93;3.40;;;;;;;;;;6259514;28;20307;-78
2023/02/08 01:12:50;;;;;;;12.00;3.67;;;;;;;;;;6242850;28;20303;-78
2023/02/08 01:15:57;;;;;;;16.30;3.30;;;;;;;;;;6261598;28;20296;-78
2023/02/08 01:19:05;;;;;;;13.63;4.03;;;;;;;;;;6243388;28;20296;-77
2023/02/08 01:22:12;;;;;;;12.97;4.10;;;;;;;;;;6260869;28;20303;-77
2023/02/08 01:25:17;;;;;;;17.13;4.30;;;;;;;;;;6260264;28;20330;-77
2023/02/08 01:28:25;;;;;;;14.43;4.07;;;;;;;;;;6259049;28;20295;-77
2023/02/08 01:31:32;;;;;;;19.33;4.27;;;;;;;;;;6243170;28;20290;-78
2023/02/08 01:34:39;;;;;;;21.97;4.70;;;;;;;;;;6258793;28;20294;-77
2023/02/08 01:37:46;;;;;;;18.77;5.30;;;;;;;;;;6242611;28;20273;-78
2023/02/08 01:40:52;;;;;;;24.50;5.27;;;;;;;;;;6206014;28;20303;-78
2023/02/08 01:44:03;;;;;;;16.30;4.93;;;;;;;;;;6244053;28;20296;-78
2023/02/08 01:47:10;;;;;;;23.60;5.33;;;;;;;;;;6244726;28;20288;-79
2023/02/08 01:50:20;;;;;;;21.23;5.33;;;;;;;;;;6241434;28;20292;-77
2023/02/08 01:53:27;;;;;;;18.33;4.83;;;;;;;;;;6243014;28;20295;-77
2023/02/08 01:56:34;;;;;;;24.50;5.60;;;;;;;;;;6241499;28;20289;-77
2023/02/08 01:59:43;;;;;;;27.60;6.10;;;;;;;;;;6234107;28;20305;-78
2023/02/08 02:02:48;;;;;;;22.47;5.67;;;;;;;;;;6239311;23;20339;-78
2023/02/08 02:05:57;;;;;;;28.97;5.40;;;;;;;;;;6234105;28;20296;-78
2023/02/08 02:09:11;;;;;;;21.87;6.40;;;;;;;;;;6233237;28;20308;-78
2023/02/08 02:12:17;;;;;;;24.53;5.60;;;;;;;;;;6235605;28;20303;-78
2023/02/08 02:15:23;;;;;;;24.27;5.73;;;;;;;;;;6238054;28;20310;-77
2023/02/08 02:18:29;;;;;;;25.43;5.47;;;;;;;;;;6259389;28;20298;-78
2023/02/08 02:21:51;;;;;;;23.90;5.33;;;;;;;;;;6259740;28;20295;-78
2023/02/08 02:25:27;;;;;;;19.23;5.37;;;;;;;;;;6258798;28;20307;-78
2023/02/08 02:29:04;;;;;;;18.10;5.33;;;;;;;;;;6256067;28;20589;-79
2023/02/08 02:32:30;;;;;;;24.37;5.70;;;;;;;;;;6241318;28;20458;-79
2023/02/08 02:35:44;;;;;;;20.63;5.73;;;;;;;;;;6257933;28;20295;-78
2023/02/08 02:39:01;;;;;;;21.80;5.90;;;;;;;;;;6257789;28;20292;-79
2023/02/08 02:45:35;;;;;;;26.93;6.20;;;;;;;;;;6264498;28;20454;-78
2023/02/08 02:48:49;;;;;;;26.10;6.60;;;;;;;;;;6263286;28;20303;-77
2023/02/08 02:51:57;;;;;;;27.50;6.37;;;;;;;;;;6264032;28;20303;-77
2023/02/08 02:55:06;;;;;;;32.40;6.10;;;;;;;;;;6263298;28;20375;-78
2023/02/08 02:58:16;;;;;;;18.33;5.80;;;;;;;;;;6263337;28;20303;-77
2023/02/08 03:01:25;;;;;;;27.23;6.13;;;;;;;;;;6263487;28;20287;-77
2023/02/08 03:04:55;;;;;;;30.30;6.67;;;;;;;;;;6240886;28;20299;-77
2023/02/08 03:08:15;;;;;;;20.73;5.93;;;;;;;;;;6216856;28;20289;-77
2023/02/08 03:11:23;;;;;;;27.53;5.77;;;;;;;;;;6239293;28;20283;-78
2023/02/08 03:14:38;;;;;;;21.13;6.50;;;;;;;;;;6238749;28;20304;-78
2023/02/08 03:17:52;;;;;;;25.27;6.00;;;;;;;;;;6239049;28;20298;-78
2023/02/08 03:21:02;;;;;;;21.57;6.30;;;;;;;;;;6236922;28;20303;-78
2023/02/08 03:24:16;;;;;;;24.80;6.60;;;;;;;;;;6236272;28;20600;-79
2023/02/08 03:27:30;;;;;;;23.53;6.33;;;;;;;;;;6238789;28;20615;-79
2023/02/08 03:30:43;;;;;;;25.20;5.93;;;;;;;;;;6238373;28;20309;-79
2023/02/08 03:33:53;;;;;;;18.40;5.90;;;;;;;;;;6238103;28;20299;-79
2023/02/08 03:37:02;;;;;;;21.40;6.57;;;;;;;;;;6239168;28;20300;-79
2023/02/08 03:40:11;;;;;;;29.40;6.87;;;;;;;;;;6220293;28;20304;-78
2023/02/08 03:43:19;;;;;;;20.43;6.20;;;;;;;;;;6238196;28;20314;-78
2023/02/08 03:46:27;;;;;;;19.23;6.53;;;;;;;;;;6238722;28;20296;-78
2023/02/08 03:49:35;;;;;;;21.20;6.57;;;;;;;;;;6237065;28;20303;-78
2023/02/08 03:52:45;;;;;;;19.07;6.30;;;;;;;;;;6237499;28;20270;-78
2023/02/08 03:55:56;;;;;;;24.83;6.60;;;;;;;;;;6237561;28;20311;-79
2023/02/08 03:59:03;;;;;;;16.87;6.47;;;;;;;;;;6237970;28;20301;-78
2023/02/08 04:02:20;;;;;;;25.17;6.17;;;;;;;;;;6239821;28;20486;-79
2023/02/08 04:05:27;;;;;;;25.93;6.43;;;;;;;;;;6260308;28;20294;-78
2023/02/08 04:08:33;;;;;;;23.33;7.03;;;;;;;;;;6261207;28;20562;-78
2023/02/08 04:11:38;;;;;;;18.30;6.30;;;;;;;;;;6262164;28;20290;-78
2023/02/08 04:14:43;;;;;;;25.77;6.93;;;;;;;;;;6244125;28;20300;-78
2023/02/08 04:17:48;;;;;;;17.47;6.57;;;;;;;;;;6262294;28;20299;-77
2023/02/08 04:20:54;;;;;;;15.50;6.87;;;;;;;;;;6261711;28;20457;-77
2023/02/08 04:24:00;;;;;;;22.20;6.47;;;;;;;;;;6261313;28;20291;-78
2023/02/08 04:27:05;;;;;;;19.03;6.50;;;;;;;;;;6263608;28;20481;-77
2023/02/08 04:30:13;;;;;;;21.00;6.60;;;;;;;;;;6262922;28;20294;-77
2023/02/08 04:33:18;;;;;;;24.67;6.57;;;;;;;;;;6262131;28;20295;-77
2023/02/08 04:36:24;;;;;;;19.57;6.30;;;;;;;;;;6261240;28;20299;-78
2023/02/08 04:39:30;;;;;;;20.67;6.20;;;;;;;;;;6261399;28;20294;-78
2023/02/08 04:42:35;;;;;;;16.57;6.37;;;;;;;;;;6227760;28;20290;-78
2023/02/08 04:45:41;;;;;;;19.40;7.10;;;;;;;;;;6243603;28;20484;-77
2023/02/08 04:48:47;;;;;;;15.37;6.23;;;;;;;;;;6261120;28;20299;-78
2023/02/08 04:51:52;;;;;;;19.27;6.40;;;;;;;;;;6262019;28;20290;-79
2023/02/08 04:54:59;;;;;;;15.67;6.50;;;;;;;;;;6261036;28;20302;-78
2023/02/08 04:58:04;;;;;;;24.03;6.83;;;;;;;;;;6244277;28;20584;-77
2023/02/08 05:01:10;;;;;;;18.07;6.67;;;;;;;;;;6260580;28;20291;-77
2023/02/08 05:04:15;;;;;;;16.87;6.70;;;;;;;;;;6259563;28;20310;-77
2023/02/08 05:07:21;;;;;;;22.80;6.37;;;;;;;;;;6261015;28;20291;-77
2023/02/08 05:10:27;;;;;;;20.00;6.63;;;;;;;;;;6260201;28;20300;-78
2023/02/08 05:13:33;;;;;;;18.73;7.27;;;;;;;;;;6240874;28;20275;-80
2023/02/08 05:16:38;;;;;;;17.33;6.60;;;;;;;;;;6260557;28;20402;-78
2023/02/08 05:19:43;;;;;;;16.47;6.70;;;;;;;;;;6260256;28;20298;-78
2023/02/08 05:22:48;;;;;;;21.40;7.90;;;;;;;;;;6260051;28;20272;-77
2023/02/08 05:25:55;;;;;;;25.93;8.17;;;;;;;;;;6259627;28;20302;-79
2023/02/08 05:29:00;;;;;;;22.20;7.97;;;;;;;;;;6242271;28;20606;-78
2023/02/08 05:32:06;;;;;;;18.57;7.90;;;;;;;;;;6260012;28;20332;-77
2023/02/08 05:35:12;;;;;;;25.07;8.90;;;;;;;;;;6260318;28;20458;-78
2023/02/08 05:38:17;;;;;;;19.37;7.90;;;;;;;;;;6260285;28;20297;-78
2023/02/08 05:41:25;;;;;;;22.70;7.57;;;;;;;;;;6242758;28;20302;-78
2023/02/08 05:44:31;;;;;;;20.43;8.27;;;;;;;;;;6259294;28;20611;-79
2023/02/08 05:47:37;;;;;;;24.13;8.50;;;;;;;;;;6260561;28;20315;-78
2023/02/08 05:50:42;;;;;;;22.03;8.23;;;;;;;;;;6259669;28;20301;-79
2023/02/08 05:53:51;;;;;;;22.20;8.23;;;;;;;;;;6242042;28;20324;-78
2023/02/08 05:56:58;;;;;;;20.97;7.80;;;;;;;;;;6242689;28;20556;-78
2023/02/08 06:00:03;;;;;;;18.77;7.77;;;;;;;;;;6258897;28;20299;-77
2023/02/08 06:03:09;;;;;;;22.23;7.90;;;;;;;;;;6259470;28;20305;-78
2023/02/08 06:06:14;;;;;;;29.20;8.20;;;;;;;;;;6215834;28;20306;-78
2023/02/08 06:09:20;;;;;;;23.80;8.67;;;;;;;;;;6259730;28;20303;-78
2023/02/08 06:12:26;;;;;;;19.47;8.17;;;;;;;;;;6259921;28;20298;-78
2023/02/08 06:15:32;;;;;;;24.30;8.40;;;;;;;;;;6243607;28;20437;-79
2023/02/08 06:18:37;;;;;;;21.20;8.67;;;;;;;;;;6264522;28;20292;-78
2023/02/08 06:21:43;;;;;;;25.80;9.00;;;;;;;;;;6264989;28;20289;-78
2023/02/08 06:24:48;;;;;;;25.13;9.10;;;;;;;;;;6264201;28;20300;-78
2023/02/08 06:27:54;;;;;;;30.73;9.40;;;;;;;;;;6265056;28;20315;-78
2023/02/08 06:31:01;;;;;;;23.10;8.83;;;;;;;;;;6246930;28;20295;-78
2023/02/08 06:34:06;;;;;;;29.30;9.93;;;;;;;;;;6264121;28;20467;-78
2023/02/08 06:37:12;;;;;;;21.80;8.90;;;;;;;;;;6264477;28;20296;-79
2023/02/08 06:40:17;;;;;;;29.33;9.83;;;;;;;;;;6264197;28;20302;-79
2023/02/08 06:43:24;;;;;;;33.20;10.70;;;;;;;;;;6264584;28;20311;-79
2023/02/08 06:46:29;;;;;;;28.60;10.63;;;;;;;;;;6263590;28;20580;-78
2023/02/08 06:49:34;;;;;;;31.77;10.17;;;;;;;;;;6262722;28;20299;-77
2023/02/08 06:52:40;;;;;;;35.27;10.37;;;;;;;;;;6246559;28;20269;-79
2023/02/08 06:55:48;;;;;;;35.63;10.57;;;;;;;;;;6239971;28;20598;-78
2023/02/08 06:58:57;;;;;;;27.93;10.60;;;;;;;;;;6263472;28;20297;-79
2023/02/08 07:02:02;;;;;;;24.90;10.00;;;;;;;;;;6262345;28;20291;-76
2023/02/08 07:05:08;;;;;;;33.33;10.43;;;;;;;;;;6263233;28;20284;-77
2023/02/08 07:08:14;;;;;;;38.67;10.57;;;;;;;;;;6264439;28;20302;-79
2023/02/08 07:11:21;;;;;;;22.97;10.10;;;;;;;;;;6263690;28;20315;-76
2023/02/08 07:14:28;;;;;;;30.43;10.53;;;;;;;;;;6264763;28;20288;-80
2023/02/08 07:17:33;;;;;;;22.10;9.83;;;;;;;;;;6266652;28;20289;-80
2023/02/08 07:20:38;;;;;;;34.03;10.83;;;;;;;;;;6261739;28;20304;-80
2023/02/08 07:23:44;;;;;;;22.10;9.40;;;;;;;;;;6262212;28;20295;-79
2023/02/08 07:26:49;;;;;;;27.90;9.80;;;;;;;;;;6263088;28;20303;-80
2023/02/08 07:29:56;;;;;;;34.90;10.20;;;;;;;;;;6261815;28;20303;-80
2023/02/08 07:33:01;;;;;;;21.87;9.50;;;;;;;;;;6263830;28;20328;-80
2023/02/08 07:36:08;;;;;;;25.43;8.97;;;;;;;;;;6263145;28;20327;-80
2023/02/08 07:39:13;;;;;;;28.53;9.07;;;;;;;;;;6263289;28;20585;-80
2023/02/08 07:42:18;;;;;;;20.80;8.90;;;;;;;;;;6263481;28;20300;-79
2023/02/08 07:45:40;;;;;;;22.97;7.90;;;;;;;;;;6261876;28;20309;-81
2023/02/08 07:48:45;;;;;;;29.03;8.77;;;;;;;;;;6277828;28;20297;-81
2023/02/08 07:51:50;;;;;;;17.97;7.70;;;;;;;;;;6263090;28;20289;-80
2023/02/08 07:54:55;;;;;;;29.53;9.10;;;;;;;;;;6262250;28;20289;-79
2023/02/08 07:58:01;;;;;;;25.53;8.40;;;;;;;;;;6263147;28;20292;-80
2023/02/08 08:01:08;;;;;;;22.37;8.30;;;;;;;;;;6261388;28;20472;-79
2023/02/08 08:04:26;;;;;;;20.13;8.07;;;;;;;;;;6261918;28;20293;-79
2023/02/08 08:07:31;;;;;;;19.20;7.63;;;;;;;;;;6262565;28;20292;-79
2023/02/08 08:10:36;;;;;;;14.13;7.07;;;;;;;;;;6259860;28;20570;-80
2023/02/08 08:13:42;;;;;;;20.60;7.23;;;;;;;;;;6261662;28;20553;-80
2023/02/08 08:16:48;;;;;;;13.93;7.07;;;;;;;;;;6262334;28;20280;-80
2023/02/08 08:19:53;;;;;;;21.57;7.37;;;;;;;;;;6261767;28;20296;-80
2023/02/08 08:22:58;;;;;;;18.20;7.40;;;;;;;;;;6262210;28;20298;-79
2023/02/08 08:26:08;;;;;;;21.13;6.80;;;;;;;;;;6263778;28;20597;-79
2023/02/08 08:29:14;;;;;;;15.20;6.33;;;;;;;;;;6260813;28;20300;-79
2023/02/08 08:32:20;;;;;;;14.00;6.83;;;;;;;;;;6262105;28;20290;-80
2023/02/08 08:35:27;;;;;;;17.73;6.67;;;;;;;;;;6261613;28;20291;-80
2023/02/08 08:38:33;;;;;;;17.07;6.50;;;;;;;;;;6261148;28;20298;-79
2023/02/08 08:41:38;;;;;;;12.10;6.00;;;;;;;;;;6261920;28;20290;-80
2023/02/08 08:44:43;;;;;;;12.50;6.47;;;;;;;;;;6261186;28;20317;-79
2023/02/08 08:47:50;;;;;;;16.00;6.10;;;;;;;;;;6261307;28;20302;-80
2023/02/08 08:50:55;;;;;;;18.43;5.80;;;;;;;;;;6260707;28;20306;-80
2023/02/08 08:54:01;;;;;;;18.90;5.57;;;;;;;;;;6260567;28;20287;-79
2023/02/08 08:57:06;;;;;;;14.20;5.50;;;;;;;;;;6261419;28;20290;-80
2023/02/08 09:00:14;;;;;;;18.03;6.00;;;;;;;;;;6260564;28;20293;-79
2023/02/08 09:03:21;;;;;;;18.00;6.17;;;;;;;;;;6260761;28;20301;-79
2023/02/08 09:06:26;;;;;;;16.13;5.77;;;;;;;;;;6261021;28;20472;-79
2023/02/08 09:09:31;;;;;;;16.30;5.40;;;;;;;;;;6260594;28;20301;-81
2023/02/08 09:12:37;;;;;;;14.00;5.70;;;;;;;;;;6260602;28;20290;-79
2023/02/08 09:15:42;;;;;;;11.37;5.67;;;;;;;;;;6260217;28;20306;-79
2023/02/08 09:18:48;;;;;;;13.00;5.40;;;;;;;;;;6260299;28;20308;-80
2023/02/08 09:21:54;;;;;;;11.50;5.27;;;;;;;;;;6260510;28;20294;-79
2023/02/08 09:25:00;;;;;;;11.83;5.40;;;;;;;;;;6259973;28;20301;-79
2023/02/08 09:28:06;;;;;;;15.63;5.80;;;;;;;;;;6260296;28;20301;-79
2023/02/08 09:31:12;;;;;;;10.07;4.73;;;;;;;;;;6260460;28;20297;-80
2023/02/08 09:34:19;;;;;;;9.33;5.20;;;;;;;;;;6259925;28;20313;-80
2023/02/08 09:37:33;;;;;;;19.10;5.80;;;;;;;;;;6259380;28;20294;-79
2023/02/08 09:40:43;;;;;;;20.37;5.50;;;;;;;;;;6259726;28;20300;-80
2023/02/08 09:43:54;;;;;;;11.73;5.00;;;;;;;;;;6259721;28;20310;-79
2023/02/08 09:47:02;;;;;;;15.10;5.63;;;;;;;;;;6260684;28;20307;-80
2023/02/08 09:50:14;;;;;;;12.20;5.43;;;;;;;;;;6259476;28;20293;-79
2023/02/08 09:53:22;;;;;;;15.67;5.23;;;;;;;;;;6260665;28;20402;-80
2023/02/08 09:56:30;;;;;;;10.40;4.30;;;;;;;;;;6260179;28;20290;-79
2023/02/08 09:59:35;;;;;;;10.27;4.43;;;;;;;;;;6259830;28;20303;-79
2023/02/08 10:02:41;;;;;;;8.03;4.53;;;;;;;;;;6259624;28;20306;-79
2023/02/08 10:05:47;;;;;;;18.50;5.60;;;;;;;;;;6259957;28;20296;-79
2023/02/08 10:08:54;;;;;;;10.10;5.23;;;;;;;;;;6259165;28;20473;-80
2023/02/08 10:12:10;;;;;;;15.33;5.20;;;;;;;;;;6258167;28;20289;-81
2023/02/08 10:15:23;;;;;;;15.57;5.47;;;;;;;;;;6259508;28;20485;-79
2023/02/08 10:18:38;;;;;;;13.80;5.47;;;;;;;;;;6259138;28;20374;-79
2023/02/08 10:21:56;;;;;;;13.10;5.27;;;;;;;;;;6260110;28;20294;-80
2023/02/08 10:25:30;;;;;;;11.70;5.20;;;;;;;;;;6259603;28;20593;-81
2023/02/08 10:29:03;;;;;;;11.03;5.07;;;;;;;;;;6253400;28;20372;-81
2023/02/08 10:32:39;;;;;;;9.27;4.73;;;;;;;;;;6248590;28;20285;-80
2023/02/08 10:35:46;;;;;;;8.60;4.33;;;;;;;;;;6247369;28;20298;-80
2023/02/08 10:39:04;;;;;;;16.60;4.70;;;;;;;;;;6259502;28;20298;-80
2023/02/08 10:42:18;;;;;;;12.73;4.83;;;;;;;;;;6258966;28;20303;-79
2023/02/08 10:45:35;;;;;;;6.10;4.00;;;;;;;;;;6258460;28;20298;-81
2023/02/08 10:48:58;;;;;;;8.73;4.30;;;;;;;;;;6257501;28;20302;-81
2023/02/08 10:52:09;;;;;;;8.67;3.97;;;;;;;;;;6260258;28;20294;-79
2023/02/08 10:55:17;;;;;;;8.63;4.03;;;;;;;;;;6257935;28;20304;-80
2023/02/08 10:58:25;;;;;;;17.47;4.27;;;;;;;;;;6258382;28;20298;-81
2023/02/08 11:01:33;;;;;;;12.27;3.80;;;;;;;;;;6257193;28;20310;-80
2023/02/08 11:04:58;;;;;;;9.97;4.20;;;;;;;;;;6263234;28;20287;-81
2023/02/08 11:08:08;;;;;;;6.53;3.80;;;;;;;;;;6263176;28;20453;-81
2023/02/08 11:11:18;;;;;;;10.70;3.97;;;;;;;;;;6263274;28;20291;-81
2023/02/08 11:14:26;;;;;;;8.00;3.30;;;;;;;;;;6262818;28;20592;-80
2023/02/08 11:17:55;;;;;;;6.70;3.20;;;;;;;;;;6263288;28;20302;-81
2023/02/08 11:21:04;;;;;;;8.43;3.20;;;;;;;;;;6262078;28;20298;-81
2023/02/08 11:24:26;;;;;;;6.73;3.83;;;;;;;;;;6262996;28;20388;-81
2023/02/08 11:27:38;;;;;;;8.83;3.80;;;;;;;;;;6263316;28;20291;-80
2023/02/08 11:31:02;;;;;;;15.30;3.37;;;;;;;;;;6262745;28;20292;-80
2023/02/08 11:34:09;;;;;;;6.57;3.87;;;;;;;;;;6262908;28;20298;-81
2023/02/08 11:37:27;;;;;;;7.17;3.47;;;;;;;;;;6263491;28;20314;-80
2023/02/08 11:40:45;;;;;;;6.80;3.60;;;;;;;;;;6261762;28;20299;-79
2023/02/08 11:43:59;;;;;;;7.53;4.00;;;;;;;;;;6261979;28;20307;-81
2023/02/08 11:47:08;;;;;;;6.80;3.63;;;;;;;;;;6263232;28;20321;-81
2023/02/08 11:50:24;;;;;;;6.60;4.03;;;;;;;;;;6262488;28;20295;-80
2023/02/08 11:53:35;;;;;;;4.40;3.10;;;;;;;;;;6262484;28;20607;-81
2023/02/08 11:56:40;;;;;;;12.70;4.20;;;;;;;;;;6262753;28;20299;-80
2023/02/08 11:59:46;;;;;;;4.30;3.13;;;;;;;;;;6262314;28;20537;-80
2023/02/08 12:02:58;;;;;;;9.63;3.77;;;;;;;;;;6262059;28;20308;-81
2023/02/08 12:06:22;;;;;;;11.57;4.03;;;;;;;;;;6261976;28;20290;-80
2023/02/08 12:09:45;;;;;;;8.50;3.90;;;;;;;;;;6261999;28;20303;-80
2023/02/08 12:13:07;;;;;;;10.53;3.87;;;;;;;;;;6262287;28;20326;-80
2023/02/08 12:16:33;;;;;;;4.80;3.40;;;;;;;;;;6262354;28;20498;-80
2023/02/08 12:20:04;;;;;;;7.70;3.70;;;;;;;;;;6261499;28;20286;-80
2023/02/08 12:23:40;;;;;;;7.83;3.70;;;;;;;;;;6262168;28;20290;-80
2023/02/08 12:26:56;;;;;;;12.07;3.77;;;;;;;;;;6271196;28;20295;-80
2023/02/08 12:30:08;;;;;;;8.40;3.47;;;;;;;;;;6261263;28;20308;-80
2023/02/08 12:33:34;;;;;;;7.63;3.60;;;;;;;;;;6262611;28;20306;-80
2023/02/08 12:36:47;;;;;;;5.47;3.50;;;;;;;;;;6261398;28;20303;-81
2023/02/08 12:43:32;;;;;;;11.37;4.20;;;;;;;;;;6264885;28;20296;-80
2023/02/08 12:46:53;;;;;;;12.17;3.50;;;;;;;;;;6227159;28;20295;-80
2023/02/08 12:50:08;;;;;;;6.17;3.37;;;;;;;;;;6261300;28;20291;-81
2023/02/08 12:53:20;;;;;;;7.07;3.50;;;;;;;;;;6262843;28;20298;-80
2023/02/08 12:56:28;;;;;;;8.37;3.50;;;;;;;;;;6263203;28;20286;-80
2023/02/08 12:59:38;;;;;;;4.20;3.70;;;;;;;;;;6270581;28;20294;-80
2023/02/08 13:02:48;;;;;;;6.77;3.30;;;;;;;;;;6271198;28;20300;-79
2023/02/08 13:05:55;;;;;;;5.37;3.17;;;;;;;;;;6271790;28;20298;-80
2023/02/08 13:09:13;;;;;;;9.67;3.20;;;;;;;;;;6272249;28;20290;-79
2023/02/08 13:12:21;;;;;;;4.30;3.00;;;;;;;;;;6269825;28;20299;-81
2023/02/08 13:15:32;;;;;;;9.00;3.37;;;;;;;;;;6266137;28;20626;-80
2023/02/08 13:18:43;;;;;;;7.47;3.10;;;;;;;;;;6261100;28;20303;-80
2023/02/08 13:21:50;;;;;;;3.43;3.00;;;;;;;;;;6261190;28;20301;-79
2023/02/08 13:24:56;;;;;;;9.97;2.83;;;;;;;;;;6259416;28;20303;-80
2023/02/08 13:28:19;;;;;;;4.20;2.83;;;;;;;;;;6260148;28;20367;-79
2023/02/08 13:31:26;;;;;;;4.20;2.97;;;;;;;;;;6260713;28;20483;-80
2023/02/08 13:34:36;;;;;;;9.83;3.80;;;;;;;;;;6259116;28;20287;-80
2023/02/08 13:37:49;;;;;;;6.20;2.97;;;;;;;;;;6260898;28;20573;-80
2023/02/08 13:41:05;;;;;;;5.07;2.90;;;;;;;;;;6260119;28;20291;-80
2023/02/08 13:44:19;;;;;;;4.07;3.30;;;;;;;;;;6260042;28;20239;-79
2023/02/08 13:47:26;;;;;;;6.73;3.03;;;;;;;;;;6258712;28;20291;-79
2023/02/08 13:50:44;;;;;;;4.63;3.23;;;;;;;;;;6258215;28;20301;-80
2023/02/08 13:54:13;;;;;;;3.80;2.80;;;;;;;;;;6259915;28;20284;-80
2023/02/08 13:57:51;;;;;;;3.40;3.10;;;;;;;;;;6260101;28;20286;-80
2023/02/08 14:01:14;;;;;;;2.93;2.57;;;;;;;;;;6258601;28;20299;-79
2023/02/08 14:04:35;;;;;;;3.30;2.97;;;;;;;;;;6263267;28;20604;-80
2023/02/08 14:07:43;;;;;;;4.07;3.10;;;;;;;;;;6265671;28;20283;-80
2023/02/08 14:11:01;;;;;;;3.23;3.00;;;;;;;;;;6261626;28;20295;-79
2023/02/08 14:14:13;;;;;;;4.07;2.90;;;;;;;;;;6259726;28;20291;-80
2023/02/08 14:17:22;;;;;;;3.20;2.80;;;;;;;;;;6259761;28;20295;-79
2023/02/08 14:20:35;;;;;;;5.80;3.30;;;;;;;;;;6258212;28;20315;-80
2023/02/08 14:23:40;;;;;;;7.20;3.40;;;;;;;;;;6259127;28;20351;-79
2023/02/08 14:26:47;;;;;;;3.60;3.30;;;;;;;;;;6259363;28;20299;-80
2023/02/08 14:30:01;;;;;;;7.07;3.10;;;;;;;;;;6241366;28;20332;-79
2023/02/08 14:33:15;;;;;;;3.83;3.50;;;;;;;;;;6258740;28;20303;-79
2023/02/08 14:36:32;;;;;;;5.07;3.57;;;;;;;;;;6260811;28;20303;-79
2023/02/08 14:39:37;;;;;;;5.90;3.73;;;;;;;;;;6264461;28;20467;-79
2023/02/08 14:42:57;;;;;;;5.20;3.50;;;;;;;;;;6264426;28;20298;-79
2023/02/08 14:46:42;;;;;;;3.97;3.30;;;;;;;;;;6263861;28;20298;-79
2023/02/08 14:49:48;;;;;;;3.60;3.33;;;;;;;;;;6262825;28;20478;-79
2023/02/08 14:52:59;;;;;;;3.67;3.30;;;;;;;;;;6263786;28;20586;-80
2023/02/08 14:56:14;;;;;;;6.10;4.20;;;;;;;;;;6245703;28;20285;-79
2023/02/08 14:59:22;;;;;;;4.37;3.97;;;;;;;;;;6262128;28;20299;-79
2023/02/08 15:02:30;;;;;;;6.37;3.77;;;;;;;;;;6263376;28;20311;-80
2023/02/08 15:05:39;;;;;;;5.23;3.90;;;;;;;;;;6263445;28;20291;-79
2023/02/08 15:08:49;;;;;;;4.27;4.00;;;;;;;;;;6263294;28;20303;-80
2023/02/08 15:12:01;;;;;;;4.70;4.13;;;;;;;;;;6261921;28;20306;-80
2023/02/08 15:15:23;;;;;;;4.23;3.80;;;;;;;;;;6263206;28;20295;-80
2023/02/08 15:18:31;;;;;;;6.53;4.67;;;;;;;;;;6267795;28;20300;-80
2023/02/08 15:21:37;;;;;;;5.70;4.80;;;;;;;;;;6266501;28;20629;-80
2023/02/08 15:24:51;;;;;;;6.97;5.10;;;;;;;;;;6263497;28;20472;-80
2023/02/08 15:27:58;;;;;;;8.70;5.70;;;;;;;;;;6263479;28;20303;-80
2023/02/08 15:31:08;;;;;;;10.50;6.03;;;;;;;;;;6262504;28;20298;-80
2023/02/08 15:34:13;;;;;;;7.07;5.57;;;;;;;;;;6263259;28;20301;-80
2023/02/08 15:37:20;;;;;;;12.63;6.80;;;;;;;;;;6263527;28;20298;-80
2023/02/08 15:40:28;;;;;;;9.33;6.27;;;;;;;;;;6277574;28;20292;-80
2023/02/08 15:43:35;;;;;;;9.83;6.17;;;;;;;;;;6262330;28;20274;-81
2023/02/08 15:46:42;;;;;;;8.23;5.93;;;;;;;;;;6263616;28;20462;-80
2023/02/08 15:49:52;;;;;;;7.10;6.00;;;;;;;;;;6261925;28;20294;-80
2023/02/08 15:52:59;;;;;;;9.33;5.77;;;;;;;;;;6263041;28;20291;-80
2023/02/08 15:56:06;;;;;;;6.43;5.53;;;;;;;;;;6262442;28;20294;-79
2023/02/08 15:59:19;;;;;;;10.00;5.70;;;;;;;;;;6262401;28;20292;-79
2023/02/08 16:02:29;;;;;;;5.43;5.03;;;;;;;;;;6262357;28;20487;-79
2023/02/08 16:05:35;;;;;;;7.37;5.47;;;;;;;;;;6262214;28;20289;-79
2023/02/08 16:08:43;;;;;;;6.13;5.53;;;;;;;;;;6261964;28;20433;-79
2023/02/08 16:11:49;;;;;;;10.30;5.50;;;;;;;;;;6261063;28;20294;-79
2023/02/08 16:14:56;;;;;;;6.23;5.10;;;;;;;;;;6261310;28;20298;-78
2023/02/08 16:18:02;;;;;;;5.30;4.63;;;;;;;;;;6262153;28;20294;-79
2023/02/08 16:21:22;;;;;;;7.13;5.03;;;;;;;;;;6261654;28;20295;-78
2023/02/08 16:24:28;;;;;;;6.87;5.13;;;;;;;;;;6261599;28;20290;-78
2023/02/08 16:27:35;;;;;;;10.27;4.67;;;;;;;;;;6262694;28;20285;-79
2023/02/08 16:30:44;;;;;;;5.63;4.83;;;;;;;;;;6261182;28;20300;-78
2023/02/08 16:34:00;;;;;;;5.07;4.77;;;;;;;;;;6261592;28;20285;-79
2023/02/08 16:37:07;;;;;;;6.03;5.20;;;;;;;;;;6261817;28;20293;-79
2023/02/08 16:40:47;;;;;;;6.40;4.60;;;;;;;;;;6259881;28;20466;-80
2023/02/08 16:44:16;;;;;;;5.03;4.73;;;;;;;;;;6260677;28;20294;-79
2023/02/08 16:47:29;;;;;;;5.20;4.60;;;;;;;;;;6261645;28;20537;-79
2023/02/08 16:50:36;;;;;;;4.67;4.33;;;;;;;;;;6261150;28;20452;-79
2023/02/08 16:53:42;;;;;;;4.60;4.40;;;;;;;;;;6260904;28;20306;-80
2023/02/08 16:56:58;;;;;;;7.90;4.90;;;;;;;;;;6259707;28;20306;-79
2023/02/08 17:00:06;;;;;;;7.50;4.80;;;;;;;;;;6258858;28;20297;-79
2023/02/08 17:03:11;;;;;;;5.13;4.73;;;;;;;;;;6261423;28;20300;-79
2023/02/08 17:06:25;;;;;;;4.30;4.10;;;;;;;;;;6259514;28;20580;-79
2023/02/08 17:09:30;;;;;;;4.47;4.27;;;;;;;;;;6262060;28;20591;-79
2023/02/08 17:12:40;;;;;;;4.77;4.37;;;;;;;;;;6260489;28;20313;-82
2023/02/08 17:15:49;;;;;;;7.13;4.30;;;;;;;;;;6260685;28;20304;-80
2023/02/08 17:18:54;;;;;;;4.73;4.40;;;;;;;;;;6260264;28;20460;-80
2023/02/08 17:22:00;;;;;;;5.37;4.40;;;;;;;;;;6260849;28;20600;-80
2023/02/08 17:25:06;;;;;;;4.37;4.10;;;;;;;;;;6260258;28;20321;-80
2023/02/08 17:28:17;;;;;;;5.03;4.57;;;;;;;;;;6260043;28;20297;-80
2023/02/08 17:31:22;;;;;;;4.60;4.40;;;;;;;;;;6260532;28;22181;-80
2023/02/08 17:34:28;;;;;;;4.93;4.60;;;;;;;;;;6258631;28;20303;-79
2023/02/08 17:37:33;;;;;;;15.87;7.23;;;;;;;;;;6259232;28;20602;-81
2023/02/08 17:40:39;;;;;;;5.07;4.77;;;;;;;;;;6259017;28;20299;-79
2023/02/08 17:43:50;;;;;;;6.23;5.30;;;;;;;;;;6258231;28;20289;-80
2023/02/08 17:46:56;;;;;;;4.93;4.53;;;;;;;;;;6259215;28;20292;-79
2023/02/08 17:50:01;;;;;;;4.77;4.43;;;;;;;;;;6259672;28;20302;-79
2023/02/08 17:53:06;;;;;;;6.50;4.43;;;;;;;;;;6259841;28;20303;-80
2023/02/08 17:56:15;;;;;;;4.27;4.00;;;;;;;;;;6259380;28;20298;-79
2023/02/08 17:59:22;;;;;;;3.90;3.60;;;;;;;;;;6259480;28;20294;-79
2023/02/08 18:02:27;;;;;;;4.50;4.00;;;;;;;;;;6258107;28;20315;-79
2023/02/08 18:05:33;;;;;;;4.23;3.97;;;;;;;;;;6257934;28;20585;-79
2023/02/08 18:08:39;;;;;;;3.97;3.67;;;;;;;;;;6259920;28;20294;-80
2023/02/08 18:11:43;;;;;;;4.27;3.70;;;;;;;;;;6262216;28;20305;-81
2023/02/08 18:14:50;;;;;;;3.90;3.70;;;;;;;;;;6264496;28;20298;-81
2023/02/08 18:17:55;;;;;;;3.83;3.53;;;;;;;;;;6263939;28;20377;-81
2023/02/08 18:21:00;;;;;;;3.50;3.40;;;;;;;;;;6263674;28;20294;-80
2023/02/08 18:24:06;;;;;;;3.30;3.10;;;;;;;;;;6264935;28;20301;-80
2023/02/08 18:27:12;;;;;;;3.77;3.57;;;;;;;;;;6265860;28;20293;-80
2023/02/08 18:30:20;;;;;;;3.27;3.17;;;;;;;;;;6264371;28;20678;-81
2023/02/08 18:33:25;;;;;;;3.53;3.43;;;;;;;;;;6264769;28;20296;-80
2023/02/08 18:36:31;;;;;;;4.40;3.40;;;;;;;;;;6264008;28;20301;-82
2023/02/08 18:39:36;;;;;;;3.27;3.07;;;;;;;;;;6264812;28;20293;-81
2023/02/08 18:42:42;;;;;;;3.87;3.60;;;;;;;;;;6265434;28;20384;-82
2023/02/08 18:45:59;;;;;;;3.60;3.50;;;;;;;;;;6263494;28;20574;-80
2023/02/08 18:49:06;;;;;;;3.57;3.47;;;;;;;;;;6264889;28;20296;-80
2023/02/08 18:52:14;;;;;;;3.83;3.63;;;;;;;;;;6266066;28;20490;-79
2023/02/08 18:55:19;;;;;;;3.60;3.50;;;;;;;;;;6263081;28;20317;-78